createdAt,value
2023-05-14T00:00:05.012Z,100934.45
2023-05-14T00:02:33.146Z,100933.36
2023-05-14T00:04:59.987Z,100930.15
2023-05-14T00:07:30.886Z,100927.41
2023-05-14T00:09:58.623Z,100925.80
2023-05-14T00:12:26.823Z,100922.73
2023-05-14T00:14:54.062Z,100918.39
2023-05-14T00:17:20.893Z,100917.20
2023-05-14T00:19:47.761Z,100912.75
2023-05-14T00:22:14.458Z,100914.23
2023-05-14T00:24:41.132Z,100910.30
2023-05-14T00:27:07.893Z,100912.19
2023-05-14T00:29:34.628Z,100907.99
2023-05-14T00:32:01.439Z,100905.39
2023-05-14T00:34:28.102Z,100902.77
2023-05-14T00:36:54.799Z,100902.48
2023-05-14T00:39:21.530Z,100899.84
2023-05-14T00:41:48.212Z,100897.59
2023-05-14T00:44:14.899Z,100895.71
2023-05-14T00:46:43.893Z,100892.67
2023-05-14T00:49:11.449Z,100890.97
2023-05-14T00:51:38.624Z,100888.80
2023-05-14T00:54:06.510Z,100881.98
2023-05-14T00:56:35.022Z,100875.37
2023-05-14T00:59:02.051Z,100871.40
2023-05-14T01:01:28.967Z,100869.33
2023-05-14T01:03:58.045Z,100866.47
2023-05-14T01:06:28.933Z,100864.84
2023-05-14T01:09:23.657Z,100857.50
2023-05-14T01:11:50.275Z,100854.69
2023-05-14T01:14:26.089Z,100854.17
2023-05-14T01:16:58.775Z,100852.77
2023-05-14T01:19:37.728Z,100850.79
2023-05-14T01:22:04.763Z,100848.08
2023-05-14T01:24:31.467Z,100846.60
2023-05-14T01:27:07.286Z,100845.65
2023-05-14T01:29:37.215Z,100844.58
2023-05-14T01:32:08.033Z,100838.38
2023-05-14T01:34:37.065Z,100840.16
2023-05-14T01:37:05.301Z,100836.89
2023-05-14T01:39:33.028Z,100837.52
2023-05-14T01:42:01.129Z,100837.84
2023-05-14T01:44:28.168Z,100831.59
2023-05-14T01:46:54.788Z,100826.89
2023-05-14T01:49:21.489Z,100826.41
2023-05-14T01:51:48.232Z,100821.55
2023-05-14T01:54:15.024Z,100818.94
2023-05-14T01:56:41.780Z,100813.30
2023-05-14T01:59:08.514Z,100813.17
2023-05-14T02:01:36.402Z,100815.52
2023-05-14T02:04:03.342Z,100811.13
2023-05-14T02:06:30.022Z,100810.23
2023-05-14T02:08:56.666Z,100807.80
2023-05-14T02:11:23.473Z,100807.96
2023-05-14T02:13:50.358Z,100808.23
2023-05-14T02:16:17.197Z,100804.54
2023-05-14T02:18:43.986Z,100805.33
2023-05-14T02:21:11.131Z,100806.69
2023-05-14T02:23:42.034Z,100803.27
2023-05-14T02:26:10.884Z,100799.89
2023-05-14T02:28:38.136Z,100797.77
2023-05-14T02:31:05.018Z,100795.83
2023-05-14T02:33:32.043Z,100797.08
2023-05-14T02:35:59.033Z,100794.39
2023-05-14T02:38:26.608Z,100791.83
2023-05-14T02:40:53.448Z,100791.04
2023-05-14T02:43:20.344Z,100786.50
2023-05-14T02:45:47.383Z,100786.77
2023-05-14T02:48:14.223Z,100779.29
2023-05-14T02:50:40.913Z,100777.79
2023-05-14T02:53:08.827Z,100772.79
2023-05-14T02:55:35.932Z,100771.41
2023-05-14T02:58:02.637Z,100770.70
2023-05-14T03:00:29.351Z,100775.48
2023-05-14T03:02:56.699Z,100769.27
2023-05-14T03:05:24.051Z,100770.29
2023-05-14T03:07:54.085Z,100765.84
2023-05-14T03:10:21.012Z,100767.46
2023-05-14T03:12:47.980Z,100767.91
2023-05-14T03:15:15.066Z,100766.58
2023-05-14T03:17:41.813Z,100764.71
2023-05-14T03:20:08.913Z,100759.08
2023-05-14T03:22:35.777Z,100759.38
2023-05-14T03:25:02.526Z,100759.18
2023-05-14T03:27:29.404Z,100757.50
2023-05-14T03:29:56.631Z,100757.60
2023-05-14T03:32:24.270Z,100755.43
2023-05-14T03:34:50.992Z,100755.66
2023-05-14T03:37:17.704Z,100750.77
2023-05-14T03:39:44.431Z,100756.80
2023-05-14T03:42:11.099Z,100757.58
2023-05-14T03:44:37.838Z,100760.73
2023-05-14T03:47:04.863Z,100764.35
2023-05-14T03:49:32.213Z,100765.77
2023-05-14T03:51:59.502Z,100764.96
2023-05-14T03:54:26.748Z,100763.27
2023-05-14T03:56:53.494Z,100756.70
2023-05-14T03:59:20.136Z,100757.49
2023-05-14T04:01:46.852Z,100756.47
2023-05-14T04:04:13.696Z,100755.37
2023-05-14T04:06:40.594Z,100754.80
2023-05-14T04:09:07.288Z,100756.55
2023-05-14T04:11:34.963Z,100756.06
2023-05-14T04:14:01.780Z,100753.82
2023-05-14T04:16:28.879Z,100757.96
2023-05-14T04:18:55.819Z,100753.33
2023-05-14T04:21:22.452Z,100752.16
2023-05-14T04:23:49.888Z,100751.48
2023-05-14T04:26:16.613Z,100754.19
2023-05-14T04:28:43.297Z,100753.59
2023-05-14T04:31:10.068Z,100751.46
2023-05-14T04:33:36.754Z,100754.33
2023-05-14T04:36:05.242Z,100753.61
2023-05-14T04:38:32.180Z,100751.64
2023-05-14T04:40:58.945Z,100752.79
2023-05-14T04:43:25.644Z,100757.33
2023-05-14T04:45:52.835Z,100763.05
2023-05-14T04:48:19.567Z,100762.23
2023-05-14T04:50:46.417Z,100763.09
2023-05-14T04:53:13.043Z,100761.45
2023-05-14T04:55:39.768Z,100763.32
2023-05-14T04:58:06.424Z,100771.80
2023-05-14T05:00:33.542Z,100770.48
2023-05-14T05:03:00.473Z,100776.02
2023-05-14T05:05:27.356Z,100779.83
2023-05-14T05:07:54.367Z,100777.59
2023-05-14T05:10:21.321Z,100777.88
2023-05-14T05:12:48.375Z,100782.32
2023-05-14T05:15:15.213Z,100784.00
2023-05-14T05:17:42.053Z,100782.66
2023-05-14T05:20:10.148Z,100786.52
2023-05-14T05:22:36.921Z,100785.54
2023-05-14T05:25:06.508Z,100777.42
2023-05-14T05:27:35.809Z,100778.69
2023-05-14T05:30:04.106Z,100775.70
2023-05-14T05:32:31.459Z,100771.70
2023-05-14T05:34:58.562Z,100775.55
2023-05-14T05:37:25.816Z,100778.45
2023-05-14T05:39:52.549Z,100780.55
2023-05-14T05:42:19.232Z,100779.29
2023-05-14T05:44:45.980Z,100780.71
2023-05-14T05:47:12.687Z,100779.92
2023-05-14T05:49:39.333Z,100777.45
2023-05-14T05:52:06.189Z,100775.88
2023-05-14T05:54:32.913Z,100778.61
2023-05-14T05:57:00.252Z,100773.48
2023-05-14T05:59:26.888Z,100776.05
2023-05-14T06:01:53.782Z,100772.98
2023-05-14T06:04:20.508Z,100768.17
2023-05-14T06:06:47.225Z,100769.67
2023-05-14T06:09:13.936Z,100765.23
2023-05-14T06:11:40.700Z,100765.91
2023-05-14T06:14:07.654Z,100765.02
2023-05-14T06:16:34.531Z,100765.86
2023-05-14T06:19:02.154Z,100763.27
2023-05-14T06:21:29.065Z,100763.73
2023-05-14T06:23:55.838Z,100764.27
2023-05-14T06:26:23.623Z,100762.82
2023-05-14T06:28:50.437Z,100765.15
2023-05-14T06:31:18.536Z,100768.92
2023-05-14T06:33:45.466Z,100761.13
2023-05-14T06:36:12.309Z,100758.48
2023-05-14T06:38:39.008Z,100753.39
2023-05-14T06:41:05.861Z,100751.73
2023-05-14T06:43:32.574Z,100748.38
2023-05-14T06:45:59.367Z,100746.53
2023-05-14T06:51:35.446Z,100749.30
2023-05-14T06:54:02.293Z,100749.92
2023-05-14T06:56:29.130Z,100748.11
2023-05-14T06:58:56.483Z,100747.64
2023-05-14T07:01:23.214Z,100741.02
2023-05-14T07:03:50.221Z,100737.43
2023-05-14T07:06:17.055Z,100738.00
2023-05-14T07:08:45.985Z,100740.80
2023-05-14T07:11:15.828Z,100743.95
2023-05-14T07:13:42.973Z,100741.52
2023-05-14T07:16:12.572Z,100736.11
2023-05-14T07:18:39.266Z,100735.27
2023-05-14T07:21:06.794Z,100733.55
2023-05-14T07:23:36.299Z,100728.21
2023-05-14T07:26:03.949Z,100731.58
2023-05-14T07:28:30.673Z,100726.28
2023-05-14T07:30:57.633Z,100724.39
2023-05-14T07:33:25.601Z,100724.70
2023-05-14T07:35:53.573Z,100722.46
2023-05-14T07:38:20.943Z,100718.91
2023-05-14T07:40:47.769Z,100716.50
2023-05-14T07:43:14.730Z,100713.77
2023-05-14T07:45:41.627Z,100710.75
2023-05-14T07:48:08.780Z,100709.71
2023-05-14T07:50:37.683Z,100710.33
2023-05-14T07:53:04.584Z,100707.02
2023-05-14T07:55:31.537Z,100708.52
2023-05-14T07:57:58.325Z,100710.14
2023-05-14T08:00:25.248Z,100704.32
2023-05-14T08:02:52.449Z,100705.55
2023-05-14T08:05:19.490Z,100703.92
2023-05-14T08:07:46.240Z,100697.14
2023-05-14T08:10:13.164Z,100699.94
2023-05-14T08:12:40.146Z,100697.98
2023-05-14T08:15:07.938Z,100697.92
2023-05-14T08:17:34.769Z,100699.30
2023-05-14T08:20:02.799Z,100702.34
2023-05-14T08:22:29.493Z,100700.48
2023-05-14T08:24:56.279Z,100703.85
2023-05-14T08:27:22.984Z,100703.79
2023-05-14T08:29:49.657Z,100705.82
2023-05-14T08:32:23.383Z,100702.77
2023-05-14T08:34:51.068Z,100698.19
2023-05-14T08:37:17.873Z,100695.52
2023-05-14T08:39:44.849Z,100694.60
2023-05-14T08:42:13.957Z,100692.63
2023-05-14T08:44:50.267Z,100694.48
2023-05-14T08:47:21.538Z,100694.25
2023-05-14T08:49:55.275Z,100692.45
2023-05-14T08:52:23.271Z,100693.76
2023-05-14T08:54:53.752Z,100690.41
2023-05-14T08:57:24.965Z,100683.13
2023-05-14T08:59:52.154Z,100684.05
2023-05-14T09:02:23.749Z,100683.10
2023-05-14T09:04:56.696Z,100680.16
2023-05-14T09:07:24.337Z,100676.41
2023-05-14T09:09:55.062Z,100675.23
2023-05-14T09:12:22.324Z,100677.22
2023-05-14T09:14:50.366Z,100675.16
2023-05-14T09:17:17.996Z,100674.22
2023-05-14T09:19:49.535Z,100675.99
2023-05-14T09:22:18.302Z,100674.03
2023-05-14T09:24:46.044Z,100675.08
2023-05-14T09:27:22.772Z,100675.02
2023-05-14T09:29:49.522Z,100675.65
2023-05-14T09:32:16.286Z,100672.99
2023-05-14T09:34:42.968Z,100667.56
2023-05-14T09:37:10.135Z,100665.45
2023-05-14T09:39:38.266Z,100669.23
2023-05-14T09:42:05.771Z,100671.00
2023-05-14T09:44:32.728Z,100672.77
2023-05-14T09:46:59.665Z,100671.88
2023-05-14T09:49:26.540Z,100663.83
2023-05-14T09:51:53.461Z,100661.52
2023-05-14T09:54:20.202Z,100655.70
2023-05-14T09:56:47.311Z,100651.53
2023-05-14T09:59:14.136Z,100647.52
2023-05-14T10:01:43.321Z,100639.92
2023-05-14T10:04:12.578Z,100639.02
2023-05-14T10:06:40.332Z,100636.05
2023-05-14T10:09:14.170Z,100635.57
2023-05-14T10:11:44.504Z,100632.16
2023-05-14T10:14:20.905Z,100633.59
2023-05-14T10:16:50.672Z,100634.82
2023-05-14T10:19:20.962Z,100631.32
2023-05-14T10:21:53.767Z,100628.71
2023-05-14T10:24:21.233Z,100625.67
2023-05-14T10:26:49.012Z,100628.77
2023-05-14T10:29:15.798Z,100629.33
2023-05-14T10:31:51.439Z,100628.83
2023-05-14T10:34:46.856Z,100627.77
2023-05-14T10:37:17.728Z,100627.66
2023-05-14T10:39:53.847Z,100627.14
2023-05-14T10:42:23.157Z,100626.80
2023-05-14T10:45:08.376Z,100624.08
2023-05-14T10:47:40.153Z,100623.95
2023-05-14T10:50:09.847Z,100618.96
2023-05-14T10:52:37.259Z,100616.01
2023-05-14T10:55:10.285Z,100613.36
2023-05-14T10:57:39.232Z,100610.11
2023-05-14T11:00:09.047Z,100611.59
2023-05-14T11:02:38.622Z,100604.73
2023-05-14T11:05:17.717Z,100606.19
2023-05-14T11:07:47.088Z,100605.21
2023-05-14T11:10:22.276Z,100600.00
2023-05-14T11:12:53.796Z,100603.57
2023-05-14T11:15:26.294Z,100598.39
2023-05-14T11:17:54.470Z,100598.50
2023-05-14T11:20:21.792Z,100597.66
2023-05-14T11:22:51.937Z,100592.21
2023-05-14T11:25:19.003Z,100590.78
2023-05-14T11:27:47.324Z,100590.73
2023-05-14T11:30:19.085Z,100586.30
2023-05-14T11:32:47.695Z,100585.76
2023-05-14T11:35:15.765Z,100584.98
2023-05-14T11:37:43.878Z,100585.10
2023-05-14T11:40:18.674Z,100581.61
2023-05-14T11:42:45.927Z,100578.79
2023-05-14T11:45:24.417Z,100579.59
2023-05-14T11:47:53.433Z,100576.72
2023-05-14T11:50:22.263Z,100581.88
2023-05-14T11:52:50.840Z,100574.26
2023-05-14T11:55:18.090Z,100574.95
2023-05-14T11:57:45.028Z,100572.14
2023-05-14T12:00:21.446Z,100571.58
2023-05-14T12:02:50.286Z,100569.72
2023-05-14T12:05:17.320Z,100565.82
2023-05-14T12:07:47.631Z,100568.36
2023-05-14T12:10:14.899Z,100565.67
2023-05-14T12:12:46.277Z,100560.70
2023-05-14T12:15:14.825Z,100559.42
2023-05-14T12:17:41.779Z,100556.14
2023-05-14T12:20:13.602Z,100557.42
2023-05-14T12:22:42.380Z,100552.82
2023-05-14T12:25:16.288Z,100551.98
2023-05-14T12:27:45.421Z,100549.02
2023-05-14T12:30:21.328Z,100544.61
2023-05-14T12:32:54.373Z,100544.65
2023-05-14T12:35:23.257Z,100541.95
2023-05-14T12:37:50.255Z,100546.11
2023-05-14T12:40:16.914Z,100542.41
2023-05-14T12:42:43.656Z,100539.64
2023-05-14T12:45:11.168Z,100543.05
2023-05-14T12:47:37.985Z,100545.55
2023-05-14T12:50:06.184Z,100540.60
2023-05-14T12:52:38.373Z,100538.96
2023-05-14T12:55:08.170Z,100540.41
2023-05-14T12:57:35.635Z,100537.92
2023-05-14T13:00:06.857Z,100542.45
2023-05-14T13:02:42.162Z,100543.05
2023-05-14T13:05:11.436Z,100544.73
2023-05-14T13:07:38.734Z,100533.86
2023-05-14T13:10:06.170Z,100533.14
2023-05-14T13:12:33.103Z,100534.08
2023-05-14T13:14:59.788Z,100527.86
2023-05-14T13:17:26.612Z,100527.73
2023-05-14T13:19:53.567Z,100524.42
2023-05-14T13:22:20.483Z,100523.13
2023-05-14T13:24:47.087Z,100526.18
2023-05-14T13:27:13.862Z,100524.33
2023-05-14T13:29:40.911Z,100521.63
2023-05-14T13:32:07.817Z,100525.57
2023-05-14T13:34:35.009Z,100523.21
2023-05-14T13:37:01.688Z,100519.89
2023-05-14T13:39:28.380Z,100518.46
2023-05-14T13:41:56.981Z,100512.99
2023-05-14T13:44:24.543Z,100510.40
2023-05-14T13:46:51.585Z,100506.41
2023-05-14T13:49:18.890Z,100507.73
2023-05-14T13:51:45.955Z,100506.45
2023-05-14T13:54:12.726Z,100506.34
2023-05-14T13:56:39.370Z,100503.51
2023-05-14T13:59:06.544Z,100505.32
2023-05-14T14:01:33.416Z,100503.42
2023-05-14T14:04:00.533Z,100504.91
2023-05-14T14:06:30.325Z,100498.77
2023-05-14T14:08:57.062Z,100501.89
2023-05-14T14:11:23.767Z,100496.69
2023-05-14T14:13:50.521Z,100493.30
2023-05-14T14:16:17.414Z,100492.23
2023-05-14T14:18:44.970Z,100492.30
2023-05-14T14:21:12.134Z,100493.99
2023-05-14T14:23:38.954Z,100493.88
2023-05-14T14:26:05.888Z,100495.53
2023-05-14T14:28:32.819Z,100493.93
2023-05-14T14:30:59.673Z,100492.49
2023-05-14T14:33:27.253Z,100488.73
2023-05-14T14:35:54.209Z,100485.97
2023-05-14T14:38:21.022Z,100486.38
2023-05-14T14:40:47.792Z,100485.17
2023-05-14T14:43:14.477Z,100483.58
2023-05-14T14:45:41.313Z,100487.36
2023-05-14T14:48:28.163Z,100483.84
2023-05-14T14:50:55.890Z,100483.32
2023-05-14T14:53:23.194Z,100485.45
2023-05-14T14:55:51.145Z,100482.13
2023-05-14T14:58:20.486Z,100483.76
2023-05-14T15:00:48.047Z,100482.66
2023-05-14T15:03:15.395Z,100484.85
2023-05-14T15:05:42.822Z,100486.52
2023-05-14T15:08:10.259Z,100486.31
2023-05-14T15:10:38.428Z,100491.02
2023-05-14T15:13:06.523Z,100492.84
2023-05-14T15:15:34.721Z,100493.95
2023-05-14T15:18:02.699Z,100493.01
2023-05-14T15:20:29.644Z,100491.90
2023-05-14T15:22:56.981Z,100491.90
2023-05-14T15:25:24.972Z,100492.73
2023-05-14T15:27:52.272Z,100490.90
2023-05-14T15:30:19.000Z,100489.19
2023-05-14T15:32:46.732Z,100489.46
2023-05-14T15:35:13.783Z,100494.55
2023-05-14T15:37:42.810Z,100497.10
2023-05-14T15:40:10.516Z,100499.81
2023-05-14T15:42:38.798Z,100504.23
2023-05-14T15:45:06.216Z,100502.39
2023-05-14T15:47:32.948Z,100500.71
2023-05-14T15:50:00.159Z,100502.64
2023-05-14T15:52:27.373Z,100499.47
2023-05-14T15:54:56.084Z,100499.06
2023-05-14T15:57:23.261Z,100497.33
2023-05-14T15:59:50.063Z,100499.36
2023-05-14T16:02:17.008Z,100499.59
2023-05-14T16:04:45.510Z,100498.98
2023-05-14T16:07:13.559Z,100505.17
2023-05-14T16:09:40.378Z,100506.98
2023-05-14T16:12:08.219Z,100507.13
2023-05-14T16:14:35.761Z,100506.58
2023-05-14T16:17:02.907Z,100507.83
2023-05-14T16:19:29.930Z,100502.58
2023-05-14T16:21:56.677Z,100508.92
2023-05-14T16:24:23.525Z,100507.92
2023-05-14T16:26:50.563Z,100507.77
2023-05-14T16:29:17.743Z,100503.43
2023-05-14T16:31:44.761Z,100500.16
2023-05-14T16:34:11.644Z,100498.88
2023-05-14T16:36:38.720Z,100497.48
2023-05-14T16:39:08.193Z,100496.14
2023-05-14T16:41:38.062Z,100504.20
2023-05-14T16:44:05.016Z,100498.73
2023-05-14T16:46:32.360Z,100504.27
2023-05-14T16:48:59.169Z,100500.70
2023-05-14T16:51:25.880Z,100499.59
2023-05-14T16:53:54.687Z,100496.48
2023-05-14T16:56:22.493Z,100494.57
2023-05-14T16:58:49.374Z,100496.55
2023-05-14T17:01:16.209Z,100491.95
2023-05-14T17:03:43.678Z,100491.64
2023-05-14T17:06:10.688Z,100494.83
2023-05-14T17:08:37.407Z,100496.52
2023-05-14T17:11:06.042Z,100492.09
2023-05-14T17:13:33.604Z,100488.66
2023-05-14T17:16:01.153Z,100486.09
2023-05-14T17:18:28.518Z,100491.58
2023-05-14T17:20:55.342Z,100489.82
2023-05-14T17:23:22.020Z,100487.69
2023-05-14T17:25:48.819Z,100482.80
2023-05-14T17:28:15.468Z,100477.95
2023-05-14T17:30:42.190Z,100476.48
2023-05-14T17:33:09.635Z,100476.42
2023-05-14T17:35:37.421Z,100478.15
2023-05-14T17:38:04.265Z,100482.00
2023-05-14T17:40:30.998Z,100482.09
2023-05-14T17:42:57.756Z,100488.58
2023-05-14T17:45:24.996Z,100487.52
2023-05-14T17:47:52.406Z,100486.48
2023-05-14T17:50:19.314Z,100485.15
2023-05-14T17:52:46.346Z,100486.58
2023-05-14T17:55:13.604Z,100488.34
2023-05-14T17:57:42.079Z,100487.45
2023-05-14T18:00:09.546Z,100489.70
2023-05-14T18:02:39.668Z,100489.55
2023-05-14T18:05:07.328Z,100494.79
2023-05-14T18:07:35.283Z,100495.90
2023-05-14T18:10:02.481Z,100495.20
2023-05-14T18:12:29.381Z,100495.77
2023-05-14T18:14:56.232Z,100495.19
2023-05-14T18:17:23.005Z,100494.98
2023-05-14T18:19:49.833Z,100496.30
2023-05-14T18:22:16.576Z,100495.73
2023-05-14T18:24:44.645Z,100497.76
2023-05-14T18:27:11.593Z,100496.80
2023-05-14T18:29:38.387Z,100493.92
2023-05-14T18:32:05.687Z,100494.48
2023-05-14T18:34:32.661Z,100490.89
2023-05-14T18:36:59.482Z,100494.25
2023-05-14T18:39:26.430Z,100491.48
2023-05-14T18:41:53.383Z,100491.87
2023-05-14T18:44:20.350Z,100491.03
2023-05-14T18:46:47.205Z,100493.20
2023-05-14T18:49:14.136Z,100492.98
2023-05-14T18:51:40.952Z,100494.63
2023-05-14T18:54:07.787Z,100497.66
2023-05-14T18:56:36.896Z,100493.40
2023-05-14T18:59:04.422Z,100494.60
2023-05-14T19:01:31.496Z,100498.23
2023-05-14T19:03:58.568Z,100497.98
2023-05-14T19:06:25.805Z,100499.08
2023-05-14T19:08:52.537Z,100500.59
2023-05-14T19:11:19.238Z,100502.44
2023-05-14T19:13:50.217Z,100506.05
2023-05-14T19:16:17.090Z,100503.61
2023-05-14T19:18:44.038Z,100506.09
2023-05-14T19:21:10.945Z,100508.34
2023-05-14T19:23:37.706Z,100507.52
2023-05-14T19:26:05.115Z,100506.69
2023-05-14T19:28:32.119Z,100506.36
2023-05-14T19:30:59.216Z,100510.10
2023-05-14T19:33:26.283Z,100512.09
2023-05-14T19:35:53.133Z,100515.66
2023-05-14T19:38:19.883Z,100518.30
2023-05-14T19:40:47.957Z,100519.40
2023-05-14T19:43:14.781Z,100518.74
2023-05-14T19:45:42.960Z,100516.59
2023-05-14T19:48:09.779Z,100517.97
2023-05-14T19:50:37.355Z,100518.11
2023-05-14T19:53:04.751Z,100517.96
2023-05-14T19:55:31.438Z,100515.52
2023-05-14T19:57:58.194Z,100516.80
2023-05-14T20:00:25.166Z,100519.94
2023-05-14T20:02:52.046Z,100523.65
2023-05-14T20:05:18.938Z,100525.89
2023-05-14T20:07:47.307Z,100526.23
2023-05-14T20:10:14.755Z,100527.23
2023-05-14T20:12:41.454Z,100530.41
2023-05-14T20:15:09.557Z,100527.88
2023-05-14T20:17:38.217Z,100532.28
2023-05-14T20:20:06.945Z,100534.88
2023-05-14T20:22:33.749Z,100532.52
2023-05-14T20:25:00.588Z,100536.64
2023-05-14T20:27:27.446Z,100528.69
2023-05-14T20:29:54.220Z,100527.05
2023-05-14T20:32:25.077Z,100531.34
2023-05-14T20:34:52.069Z,100529.03
2023-05-14T20:37:19.879Z,100531.03
2023-05-14T20:39:47.024Z,100536.42
2023-05-14T20:42:13.801Z,100537.05
2023-05-14T20:44:40.538Z,100534.33
2023-05-14T20:47:07.352Z,100530.52
2023-05-14T20:49:34.084Z,100529.83
2023-05-14T20:52:00.754Z,100527.46
2023-05-14T20:54:27.456Z,100526.94
2023-05-14T20:56:54.216Z,100525.98
2023-05-14T20:59:20.965Z,100521.70
2023-05-14T21:01:47.842Z,100523.98
2023-05-14T21:04:15.544Z,100526.04
2023-05-14T21:06:42.707Z,100524.20
2023-05-14T21:09:09.391Z,100520.63
2023-05-14T21:11:36.393Z,100521.86
2023-05-14T21:14:03.104Z,100519.51
2023-05-14T21:16:31.447Z,100514.14
2023-05-14T21:18:58.444Z,100508.95
2023-05-14T21:21:25.999Z,100509.33
2023-05-14T21:23:53.874Z,100505.11
2023-05-14T21:26:21.953Z,100504.54
2023-05-14T21:28:49.116Z,100501.22
2023-05-14T21:31:15.804Z,100498.23
2023-05-14T21:33:42.605Z,100497.64
2023-05-14T21:36:09.881Z,100497.18
2023-05-14T21:38:36.801Z,100500.56
2023-05-14T21:41:03.530Z,100497.55
2023-05-14T21:43:30.273Z,100498.73
2023-05-14T21:45:57.069Z,100500.98
2023-05-14T21:48:23.762Z,100499.59
2023-05-14T21:50:50.707Z,100502.20
2023-05-14T21:53:17.372Z,100503.30
2023-05-14T21:55:44.384Z,100503.27
2023-05-14T21:58:11.128Z,100501.42
2023-05-14T22:00:37.747Z,100499.04
2023-05-14T22:03:04.582Z,100499.98
2023-05-14T22:05:31.549Z,100495.88
2023-05-14T22:07:58.494Z,100493.11
2023-05-14T22:10:25.330Z,100492.47
2023-05-14T22:12:52.019Z,100485.56
2023-05-14T22:15:18.695Z,100479.98
2023-05-14T22:17:47.035Z,100478.42
2023-05-14T22:20:14.207Z,100478.67
2023-05-14T22:22:40.896Z,100477.92
2023-05-14T22:25:08.104Z,100480.40
2023-05-14T22:27:34.844Z,100477.56
2023-05-14T22:30:01.575Z,100475.40
2023-05-14T22:32:28.322Z,100476.24
2023-05-14T22:34:55.269Z,100480.38
2023-05-14T22:37:22.254Z,100473.23
2023-05-14T22:39:49.011Z,100470.83
2023-05-14T22:42:15.724Z,100466.70
2023-05-14T22:44:42.370Z,100464.04
2023-05-14T22:47:09.082Z,100461.44
2023-05-14T22:49:35.841Z,100456.27
2023-05-14T22:52:02.534Z,100451.01
2023-05-14T22:54:29.229Z,100452.91
2023-05-14T22:56:55.989Z,100449.98
2023-05-14T22:59:23.960Z,100448.85
2023-05-14T23:01:50.950Z,100447.20
2023-05-14T23:04:17.852Z,100443.96
2023-05-14T23:06:44.679Z,100445.95
2023-05-14T23:09:11.517Z,100446.84
2023-05-14T23:11:38.427Z,100445.08
2023-05-14T23:14:05.296Z,100445.48
2023-05-14T23:16:32.225Z,100443.55
2023-05-14T23:18:59.123Z,100435.89
2023-05-14T23:21:26.089Z,100432.90
2023-05-14T23:23:52.747Z,100429.73
2023-05-14T23:26:19.478Z,100428.70
2023-05-14T23:28:47.429Z,100427.36
2023-05-14T23:31:14.278Z,100428.90
2023-05-14T23:33:41.116Z,100434.00
2023-05-14T23:36:08.367Z,100431.39
2023-05-14T23:38:35.086Z,100428.48
2023-05-14T23:41:01.802Z,100421.98
2023-05-14T23:43:28.580Z,100425.77
2023-05-14T23:45:55.581Z,100419.11
2023-05-14T23:48:22.288Z,100419.81
2023-05-14T23:50:48.979Z,100415.58
2023-05-14T23:53:15.741Z,100412.83
2023-05-14T23:55:42.482Z,100408.56
2023-05-14T23:58:09.130Z,100404.90
